sensor_id;sensor_type;location;lat;lon;timestamp;P1;durP1;ratioP1;P2;durP2;ratioP2
5898;SDS011;2975;50.956;6.962;2023-03-01T00:01:20;6.63;;;4.63;;
5898;SDS011;2975;50.956;6.962;2023-03-01T00:03:48;6.87;;;4.63;;
5898;SDS011;2975;50.956;6.962;2023-03-01T00:06:14;10.80;;;4.77;;
5898;SDS011;2975;50.956;6.962;2023-03-01T00:08:40;6.93;;;4.67;;
5898;SDS011;2975;50.956;6.962;2023-03-01T00:11:22;10.50;;;5.27;;
5898;SDS011;2975;50.956;6.962;2023-03-01T00:13:49;7.90;;;4.90;;
5898;SDS011;2975;50.956;6.962;2023-03-01T00:16:18;6.93;;;4.80;;
5898;SDS011;2975;50.956;6.962;2023-03-01T00:18:49;5.90;;;4.73;;
5898;SDS011;2975;50.956;6.962;2023-03-01T00:21:15;8.97;;;4.93;;
5898;SDS011;2975;50.956;6.962;2023-03-01T00:23:41;7.03;;;4.73;;
5898;SDS011;2975;50.956;6.962;2023-03-01T00:26:08;7.77;;;5.33;;
5898;SDS011;2975;50.956;6.962;2023-03-01T00:28:36;9.00;;;4.27;;
5898;SDS011;2975;50.956;6.962;2023-03-01T00:31:03;7.50;;;4.43;;
5898;SDS011;2975;50.956;6.962;2023-03-01T00:33:33;7.50;;;4.90;;
5898;SDS011;2975;50.956;6.962;2023-03-01T00:35:59;7.33;;;4.43;;
5898;SDS011;2975;50.956;6.962;2023-03-01T00:38:25;6.27;;;4.40;;
5898;SDS011;2975;50.956;6.962;2023-03-01T00:40:51;9.07;;;4.97;;
5898;SDS011;2975;50.956;6.962;2023-03-01T00:43:17;7.73;;;5.10;;
5898;SDS011;2975;50.956;6.962;2023-03-01T00:45:43;7.90;;;4.90;;
5898;SDS011;2975;50.956;6.962;2023-03-01T00:48:09;8.07;;;4.83;;
5898;SDS011;2975;50.956;6.962;2023-03-01T00:50:34;10.90;;;5.40;;
5898;SDS011;2975;50.956;6.962;2023-03-01T00:53:00;8.67;;;5.23;;
5898;SDS011;2975;50.956;6.962;2023-03-01T00:55:26;10.53;;;5.73;;
5898;SDS011;2975;50.956;6.962;2023-03-01T00:57:51;8.60;;;5.17;;
5898;SDS011;2975;50.956;6.962;2023-03-01T01:00:18;9.60;;;4.80;;
5898;SDS011;2975;50.956;6.962;2023-03-01T01:02:44;13.37;;;4.57;;
5898;SDS011;2975;50.956;6.962;2023-03-01T01:05:10;8.97;;;3.93;;
5898;SDS011;2975;50.956;6.962;2023-03-01T01:07:36;5.47;;;4.27;;
5898;SDS011;2975;50.956;6.962;2023-03-01T01:10:02;10.10;;;4.53;;
5898;SDS011;2975;50.956;6.962;2023-03-01T01:12:28;7.27;;;4.57;;
5898;SDS011;2975;50.956;6.962;2023-03-01T01:14:54;8.43;;;4.90;;
5898;SDS011;2975;50.956;6.962;2023-03-01T01:17:20;8.70;;;4.97;;
5898;SDS011;2975;50.956;6.962;2023-03-01T01:19:45;10.90;;;4.90;;
5898;SDS011;2975;50.956;6.962;2023-03-01T01:22:11;6.73;;;4.73;;
5898;SDS011;2975;50.956;6.962;2023-03-01T01:24:36;7.23;;;5.13;;
5898;SDS011;2975;50.956;6.962;2023-03-01T01:27:02;7.87;;;4.57;;
5898;SDS011;2975;50.956;6.962;2023-03-01T01:29:28;12.33;;;5.43;;
5898;SDS011;2975;50.956;6.962;2023-03-01T01:31:53;8.23;;;5.00;;
5898;SDS011;2975;50.956;6.962;2023-03-01T01:34:19;6.97;;;4.60;;
5898;SDS011;2975;50.956;6.962;2023-03-01T01:36:50;7.33;;;4.77;;
5898;SDS011;2975;50.956;6.962;2023-03-01T01:39:19;8.23;;;4.80;;
5898;SDS011;2975;50.956;6.962;2023-03-01T01:41:45;11.67;;;4.83;;
5898;SDS011;2975;50.956;6.962;2023-03-01T01:46:49;9.00;;;4.60;;
5898;SDS011;2975;50.956;6.962;2023-03-01T01:49:25;8.23;;;4.60;;
5898;SDS011;2975;50.956;6.962;2023-03-01T01:54:42;7.17;;;4.90;;
5898;SDS011;2975;50.956;6.962;2023-03-01T01:57:16;8.77;;;4.83;;
5898;SDS011;2975;50.956;6.962;2023-03-01T01:59:48;11.03;;;5.20;;
5898;SDS011;2975;50.956;6.962;2023-03-01T02:02:17;8.37;;;5.50;;
5898;SDS011;2975;50.956;6.962;2023-03-01T02:04:43;7.37;;;4.63;;
5898;SDS011;2975;50.956;6.962;2023-03-01T02:07:16;8.00;;;4.97;;
5898;SDS011;2975;50.956;6.962;2023-03-01T02:09:48;8.00;;;4.40;;
5898;SDS011;2975;50.956;6.962;2023-03-01T02:12:16;7.63;;;5.00;;
5898;SDS011;2975;50.956;6.962;2023-03-01T02:14:45;9.33;;;4.83;;
5898;SDS011;2975;50.956;6.962;2023-03-01T02:17:11;7.60;;;4.90;;
5898;SDS011;2975;50.956;6.962;2023-03-01T02:19:50;6.93;;;4.97;;
5898;SDS011;2975;50.956;6.962;2023-03-01T02:22:30;5.07;;;4.40;;
5898;SDS011;2975;50.956;6.962;2023-03-01T02:27:40;8.70;;;5.13;;
5898;SDS011;2975;50.956;6.962;2023-03-01T02:30:13;7.30;;;4.77;;
5898;SDS011;2975;50.956;6.962;2023-03-01T02:32:39;9.27;;;5.53;;
5898;SDS011;2975;50.956;6.962;2023-03-01T02:35:07;6.77;;;4.53;;
5898;SDS011;2975;50.956;6.962;2023-03-01T02:37:38;10.57;;;5.50;;
5898;SDS011;2975;50.956;6.962;2023-03-01T02:40:06;7.87;;;5.10;;
5898;SDS011;2975;50.956;6.962;2023-03-01T02:42:38;8.30;;;4.97;;
5898;SDS011;2975;50.956;6.962;2023-03-01T02:45:25;6.73;;;4.97;;
5898;SDS011;2975;50.956;6.962;2023-03-01T02:47:55;6.97;;;4.80;;
5898;SDS011;2975;50.956;6.962;2023-03-01T02:53:06;6.30;;;4.83;;
5898;SDS011;2975;50.956;6.962;2023-03-01T02:55:40;6.87;;;5.17;;
5898;SDS011;2975;50.956;6.962;2023-03-01T02:58:06;6.00;;;4.63;;
5898;SDS011;2975;50.956;6.962;2023-03-01T03:00:37;4.93;;;4.27;;
5898;SDS011;2975;50.956;6.962;2023-03-01T03:03:05;6.83;;;4.73;;
5898;SDS011;2975;50.956;6.962;2023-03-01T03:05:32;6.63;;;4.60;;
5898;SDS011;2975;50.956;6.962;2023-03-01T03:07:59;8.73;;;5.40;;
5898;SDS011;2975;50.956;6.962;2023-03-01T03:10:27;8.93;;;5.30;;
5898;SDS011;2975;50.956;6.962;2023-03-01T03:13:02;8.53;;;5.07;;
5898;SDS011;2975;50.956;6.962;2023-03-01T03:15:29;5.70;;;4.70;;
5898;SDS011;2975;50.956;6.962;2023-03-01T03:17:56;8.77;;;5.50;;
5898;SDS011;2975;50.956;6.962;2023-03-01T03:20:24;8.73;;;5.40;;
5898;SDS011;2975;50.956;6.962;2023-03-01T03:22:52;8.63;;;5.20;;
5898;SDS011;2975;50.956;6.962;2023-03-01T03:25:19;10.17;;;5.57;;
5898;SDS011;2975;50.956;6.962;2023-03-01T03:27:46;11.23;;;5.27;;
5898;SDS011;2975;50.956;6.962;2023-03-01T03:30:15;8.60;;;5.50;;
5898;SDS011;2975;50.956;6.962;2023-03-01T03:32:43;9.83;;;5.67;;
5898;SDS011;2975;50.956;6.962;2023-03-01T03:35:17;9.63;;;5.30;;
5898;SDS011;2975;50.956;6.962;2023-03-01T03:37:49;9.30;;;5.30;;
5898;SDS011;2975;50.956;6.962;2023-03-01T03:40:28;8.90;;;5.63;;
5898;SDS011;2975;50.956;6.962;2023-03-01T03:42:54;10.33;;;5.67;;
5898;SDS011;2975;50.956;6.962;2023-03-01T03:45:20;10.17;;;5.63;;
5898;SDS011;2975;50.956;6.962;2023-03-01T03:47:45;8.30;;;5.53;;
5898;SDS011;2975;50.956;6.962;2023-03-01T03:50:12;8.33;;;5.23;;
5898;SDS011;2975;50.956;6.962;2023-03-01T03:52:39;9.37;;;5.50;;
5898;SDS011;2975;50.956;6.962;2023-03-01T03:55:05;8.03;;;5.37;;
5898;SDS011;2975;50.956;6.962;2023-03-01T03:57:39;9.60;;;5.87;;
5898;SDS011;2975;50.956;6.962;2023-03-01T04:00:06;10.07;;;6.63;;
5898;SDS011;2975;50.956;6.962;2023-03-01T04:02:44;8.30;;;6.30;;
5898;SDS011;2975;50.956;6.962;2023-03-01T04:05:11;9.40;;;5.67;;
5898;SDS011;2975;50.956;6.962;2023-03-01T04:07:39;9.57;;;6.00;;
5898;SDS011;2975;50.956;6.962;2023-03-01T04:10:08;8.07;;;6.10;;
5898;SDS011;2975;50.956;6.962;2023-03-01T04:12:35;10.23;;;6.13;;
5898;SDS011;2975;50.956;6.962;2023-03-01T04:15:02;10.07;;;6.27;;
5898;SDS011;2975;50.956;6.962;2023-03-01T04:17:38;10.70;;;5.93;;
5898;SDS011;2975;50.956;6.962;2023-03-01T04:20:15;10.13;;;6.27;;
5898;SDS011;2975;50.956;6.962;2023-03-01T04:22:42;9.50;;;5.63;;
5898;SDS011;2975;50.956;6.962;2023-03-01T04:25:12;9.93;;;6.50;;
5898;SDS011;2975;50.956;6.962;2023-03-01T04:27:39;10.50;;;6.63;;
5898;SDS011;2975;50.956;6.962;2023-03-01T04:30:06;8.53;;;6.17;;
5898;SDS011;2975;50.956;6.962;2023-03-01T04:32:32;9.40;;;6.50;;
5898;SDS011;2975;50.956;6.962;2023-03-01T04:34:58;12.97;;;6.60;;
5898;SDS011;2975;50.956;6.962;2023-03-01T04:37:23;10.00;;;6.27;;
5898;SDS011;2975;50.956;6.962;2023-03-01T04:39:52;8.40;;;6.13;;
5898;SDS011;2975;50.956;6.962;2023-03-01T04:42:17;9.07;;;5.90;;
5898;SDS011;2975;50.956;6.962;2023-03-01T04:44:44;10.63;;;7.07;;
5898;SDS011;2975;50.956;6.962;2023-03-01T04:47:10;8.67;;;6.13;;
5898;SDS011;2975;50.956;6.962;2023-03-01T04:49:35;12.73;;;6.97;;
5898;SDS011;2975;50.956;6.962;2023-03-01T04:52:01;10.83;;;6.17;;
5898;SDS011;2975;50.956;6.962;2023-03-01T04:54:30;9.83;;;6.50;;
5898;SDS011;2975;50.956;6.962;2023-03-01T04:56:57;13.70;;;6.80;;
5898;SDS011;2975;50.956;6.962;2023-03-01T04:59:23;11.53;;;6.37;;
5898;SDS011;2975;50.956;6.962;2023-03-01T05:01:49;9.93;;;6.70;;
5898;SDS011;2975;50.956;6.962;2023-03-01T05:04:16;11.97;;;6.63;;
5898;SDS011;2975;50.956;6.962;2023-03-01T05:06:41;11.33;;;6.93;;
5898;SDS011;2975;50.956;6.962;2023-03-01T05:09:07;9.00;;;6.43;;
5898;SDS011;2975;50.956;6.962;2023-03-01T05:11:33;11.77;;;6.80;;
5898;SDS011;2975;50.956;6.962;2023-03-01T05:14:04;13.40;;;7.20;;
5898;SDS011;2975;50.956;6.962;2023-03-01T05:16:31;10.03;;;6.97;;
5898;SDS011;2975;50.956;6.962;2023-03-01T05:18:57;11.83;;;7.17;;
5898;SDS011;2975;50.956;6.962;2023-03-01T05:21:23;11.33;;;7.07;;
5898;SDS011;2975;50.956;6.962;2023-03-01T05:23:51;11.60;;;6.70;;
5898;SDS011;2975;50.956;6.962;2023-03-01T05:26:18;11.57;;;6.57;;
5898;SDS011;2975;50.956;6.962;2023-03-01T05:28:46;14.10;;;7.33;;
5898;SDS011;2975;50.956;6.962;2023-03-01T05:31:12;10.00;;;6.10;;
5898;SDS011;2975;50.956;6.962;2023-03-01T05:33:39;13.03;;;7.73;;
5898;SDS011;2975;50.956;6.962;2023-03-01T05:36:09;11.57;;;7.03;;
5898;SDS011;2975;50.956;6.962;2023-03-01T05:38:35;10.47;;;6.70;;
5898;SDS011;2975;50.956;6.962;2023-03-01T05:41:01;11.33;;;6.93;;
5898;SDS011;2975;50.956;6.962;2023-03-01T05:43:29;11.47;;;7.33;;
5898;SDS011;2975;50.956;6.962;2023-03-01T05:45:58;13.03;;;7.57;;
5898;SDS011;2975;50.956;6.962;2023-03-01T05:48:24;11.47;;;6.83;;
5898;SDS011;2975;50.956;6.962;2023-03-01T05:50:51;11.17;;;7.27;;
5898;SDS011;2975;50.956;6.962;2023-03-01T05:53:17;11.90;;;6.80;;
5898;SDS011;2975;50.956;6.962;2023-03-01T05:55:46;13.63;;;7.10;;
5898;SDS011;2975;50.956;6.962;2023-03-01T05:58:16;14.70;;;7.73;;
5898;SDS011;2975;50.956;6.962;2023-03-01T06:00:44;13.70;;;7.87;;
5898;SDS011;2975;50.956;6.962;2023-03-01T06:03:11;10.80;;;7.20;;
5898;SDS011;2975;50.956;6.962;2023-03-01T06:05:38;13.33;;;7.50;;
5898;SDS011;2975;50.956;6.962;2023-03-01T06:08:05;12.10;;;7.50;;
5898;SDS011;2975;50.956;6.962;2023-03-01T06:10:31;10.33;;;7.07;;
5898;SDS011;2975;50.956;6.962;2023-03-01T06:12:57;12.33;;;7.73;;
5898;SDS011;2975;50.956;6.962;2023-03-01T06:15:23;11.20;;;7.03;;
5898;SDS011;2975;50.956;6.962;2023-03-01T06:17:49;12.63;;;7.47;;
5898;SDS011;2975;50.956;6.962;2023-03-01T06:20:20;15.23;;;7.40;;
5898;SDS011;2975;50.956;6.962;2023-03-01T06:22:47;12.40;;;7.23;;
5898;SDS011;2975;50.956;6.962;2023-03-01T06:25:15;14.17;;;8.10;;
5898;SDS011;2975;50.956;6.962;2023-03-01T06:27:42;11.30;;;8.03;;
5898;SDS011;2975;50.956;6.962;2023-03-01T06:30:09;10.97;;;7.47;;
5898;SDS011;2975;50.956;6.962;2023-03-01T06:32:36;10.37;;;7.03;;
5898;SDS011;2975;50.956;6.962;2023-03-01T06:35:03;16.03;;;8.10;;
5898;SDS011;2975;50.956;6.962;2023-03-01T06:37:29;13.60;;;8.10;;
5898;SDS011;2975;50.956;6.962;2023-03-01T06:39:55;16.00;;;7.67;;
5898;SDS011;2975;50.956;6.962;2023-03-01T06:42:21;12.33;;;7.83;;
5898;SDS011;2975;50.956;6.962;2023-03-01T06:44:47;13.57;;;7.47;;
5898;SDS011;2975;50.956;6.962;2023-03-01T06:47:13;15.00;;;8.97;;
5898;SDS011;2975;50.956;6.962;2023-03-01T06:49:38;15.03;;;7.77;;
5898;SDS011;2975;50.956;6.962;2023-03-01T06:52:04;14.43;;;7.97;;
5898;SDS011;2975;50.956;6.962;2023-03-01T06:54:29;15.90;;;7.60;;
5898;SDS011;2975;50.956;6.962;2023-03-01T06:56:55;15.53;;;7.67;;
5898;SDS011;2975;50.956;6.962;2023-03-01T06:59:20;17.27;;;8.13;;
5898;SDS011;2975;50.956;6.962;2023-03-01T07:01:46;12.83;;;7.07;;
5898;SDS011;2975;50.956;6.962;2023-03-01T07:04:12;14.57;;;7.97;;
5898;SDS011;2975;50.956;6.962;2023-03-01T07:06:38;12.53;;;7.87;;
5898;SDS011;2975;50.956;6.962;2023-03-01T07:09:03;14.10;;;8.50;;
5898;SDS011;2975;50.956;6.962;2023-03-01T07:11:29;15.37;;;7.97;;
5898;SDS011;2975;50.956;6.962;2023-03-01T07:13:54;16.10;;;8.67;;
5898;SDS011;2975;50.956;6.962;2023-03-01T07:16:20;11.73;;;8.00;;
5898;SDS011;2975;50.956;6.962;2023-03-01T07:18:46;14.00;;;8.20;;
5898;SDS011;2975;50.956;6.962;2023-03-01T07:21:13;14.97;;;8.43;;
5898;SDS011;2975;50.956;6.962;2023-03-01T07:23:39;15.13;;;7.67;;
5898;SDS011;2975;50.956;6.962;2023-03-01T07:26:05;14.80;;;8.10;;
5898;SDS011;2975;50.956;6.962;2023-03-01T07:28:31;11.63;;;7.87;;
5898;SDS011;2975;50.956;6.962;2023-03-01T07:31:01;15.97;;;8.63;;
5898;SDS011;2975;50.956;6.962;2023-03-01T07:33:28;14.73;;;8.13;;
5898;SDS011;2975;50.956;6.962;2023-03-01T07:36:00;15.30;;;8.80;;
5898;SDS011;2975;50.956;6.962;2023-03-01T07:38:27;11.40;;;8.30;;
5898;SDS011;2975;50.956;6.962;2023-03-01T07:40:53;13.93;;;8.83;;
5898;SDS011;2975;50.956;6.962;2023-03-01T07:43:22;15.27;;;8.67;;
5898;SDS011;2975;50.956;6.962;2023-03-01T07:45:48;13.93;;;8.57;;
5898;SDS011;2975;50.956;6.962;2023-03-01T07:48:13;14.40;;;8.67;;
5898;SDS011;2975;50.956;6.962;2023-03-01T07:50:42;13.80;;;8.37;;
5898;SDS011;2975;50.956;6.962;2023-03-01T07:53:08;16.37;;;8.83;;
5898;SDS011;2975;50.956;6.962;2023-03-01T07:55:35;18.93;;;7.93;;
5898;SDS011;2975;50.956;6.962;2023-03-01T07:58:01;14.77;;;8.57;;
5898;SDS011;2975;50.956;6.962;2023-03-01T08:00:26;13.60;;;8.80;;
5898;SDS011;2975;50.956;6.962;2023-03-01T08:02:52;16.07;;;8.63;;
5898;SDS011;2975;50.956;6.962;2023-03-01T08:05:18;16.83;;;8.40;;
5898;SDS011;2975;50.956;6.962;2023-03-01T08:07:44;13.33;;;7.63;;
5898;SDS011;2975;50.956;6.962;2023-03-01T08:10:09;19.40;;;9.27;;
5898;SDS011;2975;50.956;6.962;2023-03-01T08:12:35;11.60;;;8.23;;
5898;SDS011;2975;50.956;6.962;2023-03-01T08:15:01;13.93;;;8.40;;
5898;SDS011;2975;50.956;6.962;2023-03-01T08:17:27;13.07;;;8.53;;
5898;SDS011;2975;50.956;6.962;2023-03-01T08:19:52;15.43;;;8.83;;
5898;SDS011;2975;50.956;6.962;2023-03-01T08:22:18;14.07;;;8.67;;
5898;SDS011;2975;50.956;6.962;2023-03-01T08:24:43;14.40;;;8.40;;
5898;SDS011;2975;50.956;6.962;2023-03-01T08:27:09;16.23;;;8.30;;
5898;SDS011;2975;50.956;6.962;2023-03-01T08:29:35;15.10;;;8.33;;
5898;SDS011;2975;50.956;6.962;2023-03-01T08:32:00;13.50;;;8.60;;
5898;SDS011;2975;50.956;6.962;2023-03-01T08:34:26;13.93;;;8.63;;
5898;SDS011;2975;50.956;6.962;2023-03-01T08:36:52;12.57;;;8.37;;
5898;SDS011;2975;50.956;6.962;2023-03-01T08:39:18;15.60;;;8.77;;
5898;SDS011;2975;50.956;6.962;2023-03-01T08:41:45;12.63;;;7.87;;
5898;SDS011;2975;50.956;6.962;2023-03-01T08:44:12;15.80;;;8.33;;
5898;SDS011;2975;50.956;6.962;2023-03-01T08:46:39;14.93;;;8.50;;
5898;SDS011;2975;50.956;6.962;2023-03-01T08:49:06;13.73;;;8.40;;
5898;SDS011;2975;50.956;6.962;2023-03-01T08:51:33;15.57;;;8.83;;
5898;SDS011;2975;50.956;6.962;2023-03-01T08:54:02;11.70;;;8.03;;
5898;SDS011;2975;50.956;6.962;2023-03-01T08:56:32;14.63;;;8.73;;
5898;SDS011;2975;50.956;6.962;2023-03-01T08:58:58;15.07;;;8.70;;
5898;SDS011;2975;50.956;6.962;2023-03-01T09:01:24;14.27;;;7.30;;
5898;SDS011;2975;50.956;6.962;2023-03-01T09:03:49;10.60;;;7.57;;
5898;SDS011;2975;50.956;6.962;2023-03-01T09:06:15;12.47;;;7.03;;
5898;SDS011;2975;50.956;6.962;2023-03-01T09:08:42;14.10;;;7.50;;
5898;SDS011;2975;50.956;6.962;2023-03-01T09:11:11;13.77;;;7.80;;
5898;SDS011;2975;50.956;6.962;2023-03-01T09:13:38;11.50;;;7.37;;
5898;SDS011;2975;50.956;6.962;2023-03-01T09:16:04;11.30;;;7.53;;
5898;SDS011;2975;50.956;6.962;2023-03-01T09:18:31;13.63;;;7.00;;
5898;SDS011;2975;50.956;6.962;2023-03-01T09:21:05;9.77;;;6.77;;
5898;SDS011;2975;50.956;6.962;2023-03-01T09:23:34;12.73;;;7.57;;
5898;SDS011;2975;50.956;6.962;2023-03-01T09:26:01;11.40;;;7.20;;
5898;SDS011;2975;50.956;6.962;2023-03-01T09:28:27;12.37;;;6.47;;
5898;SDS011;2975;50.956;6.962;2023-03-01T09:30:53;10.10;;;6.97;;
5898;SDS011;2975;50.956;6.962;2023-03-01T09:33:18;15.20;;;6.57;;
5898;SDS011;2975;50.956;6.962;2023-03-01T09:35:44;9.30;;;6.20;;
5898;SDS011;2975;50.956;6.962;2023-03-01T09:38:12;9.93;;;5.93;;
5898;SDS011;2975;50.956;6.962;2023-03-01T09:40:42;11.57;;;6.60;;
5898;SDS011;2975;50.956;6.962;2023-03-01T09:45:48;8.83;;;6.43;;
5898;SDS011;2975;50.956;6.962;2023-03-01T09:48:18;10.87;;;6.30;;
5898;SDS011;2975;50.956;6.962;2023-03-01T09:50:47;9.33;;;6.83;;
5898;SDS011;2975;50.956;6.962;2023-03-01T09:53:15;12.47;;;6.60;;
5898;SDS011;2975;50.956;6.962;2023-03-01T09:55:46;10.93;;;6.87;;
5898;SDS011;2975;50.956;6.962;2023-03-01T10:01:16;10.73;;;6.50;;
5898;SDS011;2975;50.956;6.962;2023-03-01T10:04:44;11.83;;;7.47;;
5898;SDS011;2975;50.956;6.962;2023-03-01T10:07:36;8.77;;;5.87;;
5898;SDS011;2975;50.956;6.962;2023-03-01T10:10:16;11.53;;;6.80;;
5898;SDS011;2975;50.956;6.962;2023-03-01T10:12:58;14.33;;;6.63;;
5898;SDS011;2975;50.956;6.962;2023-03-01T10:15:35;10.47;;;6.43;;
5898;SDS011;2975;50.956;6.962;2023-03-01T10:18:15;12.30;;;7.10;;
5898;SDS011;2975;50.956;6.962;2023-03-01T10:20:51;11.13;;;6.63;;
5898;SDS011;2975;50.956;6.962;2023-03-01T10:23:28;11.87;;;6.73;;
5898;SDS011;2975;50.956;6.962;2023-03-01T10:26:04;12.30;;;6.97;;
5898;SDS011;2975;50.956;6.962;2023-03-01T10:29:00;11.47;;;6.93;;
5898;SDS011;2975;50.956;6.962;2023-03-01T10:31:37;14.40;;;6.70;;
5898;SDS011;2975;50.956;6.962;2023-03-01T10:34:09;12.77;;;7.17;;
5898;SDS011;2975;50.956;6.962;2023-03-01T10:36:36;12.20;;;6.57;;
5898;SDS011;2975;50.956;6.962;2023-03-01T10:39:06;12.67;;;7.30;;
5898;SDS011;2975;50.956;6.962;2023-03-01T10:41:40;12.23;;;6.97;;
5898;SDS011;2975;50.956;6.962;2023-03-01T10:44:37;11.10;;;6.50;;
5898;SDS011;2975;50.956;6.962;2023-03-01T10:47:39;11.83;;;6.37;;
5898;SDS011;2975;50.956;6.962;2023-03-01T10:49:59;12.13;;;7.17;;
5898;SDS011;2975;50.956;6.962;2023-03-01T10:52:28;11.30;;;6.77;;
5898;SDS011;2975;50.956;6.962;2023-03-01T10:57:50;10.40;;;6.73;;
5898;SDS011;2975;50.956;6.962;2023-03-01T11:03:23;13.40;;;7.10;;
5898;SDS011;2975;50.956;6.962;2023-03-01T11:11:06;11.53;;;6.77;;
5898;SDS011;2975;50.956;6.962;2023-03-01T11:13:52;12.80;;;7.37;;
5898;SDS011;2975;50.956;6.962;2023-03-01T11:16:32;8.87;;;6.27;;
5898;SDS011;2975;50.956;6.962;2023-03-01T11:21:35;10.13;;;5.97;;
5898;SDS011;2975;50.956;6.962;2023-03-01T11:24:25;11.13;;;7.03;;
5898;SDS011;2975;50.956;6.962;2023-03-01T11:26:54;12.27;;;6.67;;
5898;SDS011;2975;50.956;6.962;2023-03-01T11:29:26;11.53;;;6.90;;
5898;SDS011;2975;50.956;6.962;2023-03-01T11:31:57;9.57;;;6.50;;
5898;SDS011;2975;50.956;6.962;2023-03-01T11:40:05;8.97;;;6.37;;
5898;SDS011;2975;50.956;6.962;2023-03-01T11:43:00;9.47;;;6.20;;
5898;SDS011;2975;50.956;6.962;2023-03-01T11:45:40;9.90;;;6.30;;
5898;SDS011;2975;50.956;6.962;2023-03-01T11:48:37;9.47;;;6.13;;
5898;SDS011;2975;50.956;6.962;2023-03-01T11:51:22;10.03;;;6.30;;
5898;SDS011;2975;50.956;6.962;2023-03-01T11:56:38;14.23;;;7.67;;
5898;SDS011;2975;50.956;6.962;2023-03-01T12:10:28;10.20;;;6.47;;
5898;SDS011;2975;50.956;6.962;2023-03-01T12:24:39;8.73;;;6.40;;
5898;SDS011;2975;50.956;6.962;2023-03-01T12:30:17;9.03;;;6.53;;
5898;SDS011;2975;50.956;6.962;2023-03-01T12:36:37;8.90;;;6.03;;
5898;SDS011;2975;50.956;6.962;2023-03-01T12:42:05;8.27;;;5.50;;
5898;SDS011;2975;50.956;6.962;2023-03-01T12:50:11;10.33;;;5.93;;
5898;SDS011;2975;50.956;6.962;2023-03-01T12:52:46;10.03;;;6.30;;
5898;SDS011;2975;50.956;6.962;2023-03-01T12:55:26;8.87;;;5.87;;
5898;SDS011;2975;50.956;6.962;2023-03-01T12:58:04;8.67;;;6.03;;
5898;SDS011;2975;50.956;6.962;2023-03-01T13:06:28;12.07;;;6.13;;
5898;SDS011;2975;50.956;6.962;2023-03-01T13:09:19;8.23;;;5.70;;
5898;SDS011;2975;50.956;6.962;2023-03-01T13:11:55;11.70;;;6.20;;
5898;SDS011;2975;50.956;6.962;2023-03-01T13:16:48;11.57;;;6.67;;
5898;SDS011;2975;50.956;6.962;2023-03-01T13:19:15;8.33;;;5.70;;
5898;SDS011;2975;50.956;6.962;2023-03-01T13:21:43;9.17;;;6.27;;
5898;SDS011;2975;50.956;6.962;2023-03-01T13:29:47;10.20;;;6.37;;
5898;SDS011;2975;50.956;6.962;2023-03-01T13:32:24;7.97;;;5.77;;
5898;SDS011;2975;50.956;6.962;2023-03-01T13:37:42;8.43;;;5.53;;
5898;SDS011;2975;50.956;6.962;2023-03-01T13:42:42;8.50;;;5.37;;
5898;SDS011;2975;50.956;6.962;2023-03-01T13:45:33;8.97;;;6.87;;
5898;SDS011;2975;50.956;6.962;2023-03-01T13:48:18;8.30;;;5.20;;
5898;SDS011;2975;50.956;6.962;2023-03-01T13:50:50;8.30;;;5.50;;
5898;SDS011;2975;50.956;6.962;2023-03-01T13:53:21;9.20;;;6.07;;
5898;SDS011;2975;50.956;6.962;2023-03-01T13:55:51;9.53;;;5.27;;
5898;SDS011;2975;50.956;6.962;2023-03-01T13:58:29;7.87;;;5.40;;
5898;SDS011;2975;50.956;6.962;2023-03-01T14:01:03;7.67;;;5.23;;
5898;SDS011;2975;50.956;6.962;2023-03-01T14:03:32;8.73;;;5.93;;
5898;SDS011;2975;50.956;6.962;2023-03-01T14:08:33;6.93;;;5.67;;
5898;SDS011;2975;50.956;6.962;2023-03-01T14:13:39;10.70;;;5.90;;
5898;SDS011;2975;50.956;6.962;2023-03-01T14:16:17;9.67;;;5.17;;
5898;SDS011;2975;50.956;6.962;2023-03-01T14:21:39;10.53;;;5.13;;
5898;SDS011;2975;50.956;6.962;2023-03-01T14:24:05;6.73;;;5.07;;
5898;SDS011;2975;50.956;6.962;2023-03-01T14:26:31;8.43;;;4.73;;
5898;SDS011;2975;50.956;6.962;2023-03-01T14:29:00;8.07;;;4.90;;
5898;SDS011;2975;50.956;6.962;2023-03-01T14:33:57;7.63;;;4.97;;
5898;SDS011;2975;50.956;6.962;2023-03-01T14:36:27;9.20;;;5.13;;
5898;SDS011;2975;50.956;6.962;2023-03-01T14:38:54;11.20;;;5.70;;
5898;SDS011;2975;50.956;6.962;2023-03-01T14:41:21;6.40;;;4.73;;
5898;SDS011;2975;50.956;6.962;2023-03-01T14:43:53;7.43;;;4.90;;
5898;SDS011;2975;50.956;6.962;2023-03-01T14:46:24;9.27;;;5.23;;
5898;SDS011;2975;50.956;6.962;2023-03-01T14:49:04;10.20;;;5.70;;
5898;SDS011;2975;50.956;6.962;2023-03-01T14:51:56;9.13;;;5.17;;
5898;SDS011;2975;50.956;6.962;2023-03-01T14:54:37;8.80;;;5.40;;
5898;SDS011;2975;50.956;6.962;2023-03-01T14:57:14;11.27;;;5.17;;
5898;SDS011;2975;50.956;6.962;2023-03-01T14:59:41;7.60;;;5.10;;
5898;SDS011;2975;50.956;6.962;2023-03-01T15:02:08;9.43;;;5.83;;
5898;SDS011;2975;50.956;6.962;2023-03-01T15:04:41;8.93;;;5.57;;
5898;SDS011;2975;50.956;6.962;2023-03-01T15:07:33;10.33;;;5.77;;
5898;SDS011;2975;50.956;6.962;2023-03-01T15:10:02;7.43;;;5.03;;
5898;SDS011;2975;50.956;6.962;2023-03-01T15:12:39;8.87;;;5.67;;
5898;SDS011;2975;50.956;6.962;2023-03-01T15:15:19;7.73;;;5.37;;
5898;SDS011;2975;50.956;6.962;2023-03-01T15:20:49;8.63;;;5.27;;
5898;SDS011;2975;50.956;6.962;2023-03-01T15:23:28;10.17;;;6.00;;
5898;SDS011;2975;50.956;6.962;2023-03-01T15:25:55;7.70;;;5.07;;
5898;SDS011;2975;50.956;6.962;2023-03-01T15:28:41;10.53;;;4.83;;
5898;SDS011;2975;50.956;6.962;2023-03-01T15:36:49;10.00;;;5.90;;
5898;SDS011;2975;50.956;6.962;2023-03-01T15:39:32;9.57;;;5.33;;
5898;SDS011;2975;50.956;6.962;2023-03-01T15:42:03;8.97;;;5.50;;
5898;SDS011;2975;50.956;6.962;2023-03-01T15:44:41;7.53;;;5.47;;
5898;SDS011;2975;50.956;6.962;2023-03-01T15:47:26;9.37;;;5.20;;
5898;SDS011;2975;50.956;6.962;2023-03-01T15:49:56;7.53;;;4.80;;
5898;SDS011;2975;50.956;6.962;2023-03-01T15:52:39;8.60;;;5.27;;
5898;SDS011;2975;50.956;6.962;2023-03-01T15:58:03;8.20;;;4.90;;
5898;SDS011;2975;50.956;6.962;2023-03-01T16:00:29;9.67;;;5.07;;
5898;SDS011;2975;50.956;6.962;2023-03-01T16:02:55;7.77;;;4.60;;
5898;SDS011;2975;50.956;6.962;2023-03-01T16:05:23;7.50;;;4.40;;
5898;SDS011;2975;50.956;6.962;2023-03-01T16:07:57;7.43;;;4.80;;
5898;SDS011;2975;50.956;6.962;2023-03-01T16:10:23;6.87;;;4.70;;
5898;SDS011;2975;50.956;6.962;2023-03-01T16:12:50;6.90;;;4.47;;
5898;SDS011;2975;50.956;6.962;2023-03-01T16:15:23;7.17;;;5.10;;
5898;SDS011;2975;50.956;6.962;2023-03-01T16:17:53;7.53;;;4.90;;
5898;SDS011;2975;50.956;6.962;2023-03-01T16:20:19;7.50;;;4.67;;
5898;SDS011;2975;50.956;6.962;2023-03-01T16:22:45;7.93;;;4.50;;
5898;SDS011;2975;50.956;6.962;2023-03-01T16:25:12;6.03;;;4.33;;
5898;SDS011;2975;50.956;6.962;2023-03-01T16:27:47;8.83;;;4.93;;
5898;SDS011;2975;50.956;6.962;2023-03-01T16:30:14;7.23;;;5.00;;
5898;SDS011;2975;50.956;6.962;2023-03-01T16:32:42;7.40;;;4.23;;
5898;SDS011;2975;50.956;6.962;2023-03-01T16:35:10;7.87;;;5.10;;
5898;SDS011;2975;50.956;6.962;2023-03-01T16:37:37;5.77;;;3.77;;
5898;SDS011;2975;50.956;6.962;2023-03-01T16:40:04;11.70;;;4.67;;
5898;SDS011;2975;50.956;6.962;2023-03-01T16:42:33;7.23;;;4.23;;
5898;SDS011;2975;50.956;6.962;2023-03-01T16:45:01;8.00;;;4.47;;
5898;SDS011;2975;50.956;6.962;2023-03-01T16:47:28;10.70;;;4.70;;
5898;SDS011;2975;50.956;6.962;2023-03-01T16:49:54;7.43;;;4.80;;
5898;SDS011;2975;50.956;6.962;2023-03-01T16:52:20;8.50;;;5.60;;
5898;SDS011;2975;50.956;6.962;2023-03-01T16:54:47;10.87;;;4.90;;
5898;SDS011;2975;50.956;6.962;2023-03-01T16:57:13;9.63;;;4.90;;
5898;SDS011;2975;50.956;6.962;2023-03-01T16:59:38;6.90;;;4.60;;
5898;SDS011;2975;50.956;6.962;2023-03-01T17:02:05;8.17;;;4.70;;
5898;SDS011;2975;50.956;6.962;2023-03-01T17:04:34;6.60;;;4.40;;
5898;SDS011;2975;50.956;6.962;2023-03-01T17:07:00;6.80;;;4.30;;
5898;SDS011;2975;50.956;6.962;2023-03-01T17:09:25;7.63;;;4.63;;
5898;SDS011;2975;50.956;6.962;2023-03-01T17:11:51;7.87;;;4.70;;
5898;SDS011;2975;50.956;6.962;2023-03-01T17:14:17;8.20;;;4.93;;
5898;SDS011;2975;50.956;6.962;2023-03-01T17:16:43;8.40;;;5.13;;
5898;SDS011;2975;50.956;6.962;2023-03-01T17:19:09;8.80;;;4.97;;
5898;SDS011;2975;50.956;6.962;2023-03-01T17:21:35;7.73;;;4.70;;